Time;durP1;ratioP1;P1;durP2;ratioP2;P2;SDS_P1;SDS_P2;PMS_P1;PMS_P2;Temp;Humidity;BMP_temperature;BMP_pressure;BME280_temperature;BME280_humidity;BME280_pressure;Samples;Min_cycle;Max_cycle;Signal;HPM_P1;HPM_P2
2024/03/23 00:01:42;;;;;;;37.65;7.82;;;7.60;99.90;;;;;;5040291;28;20194;-68
2024/03/23 00:04:09;;;;;;;40.67;8.65;;;7.60;99.90;;;;;;5038767;28;20293;-70
2024/03/23 00:06:35;;;;;;;39.42;7.88;;;7.60;99.90;;;;;;5041572;28;20197;-70
2024/03/23 00:09:02;;;;;;;40.00;8.93;;;7.60;99.90;;;;;;5043247;28;20210;-70
2024/03/23 00:11:28;;;;;;;47.17;8.75;;;7.60;99.90;;;;;;5043568;28;20198;-70
2024/03/23 00:13:56;;;;;;;40.60;7.82;;;7.50;99.90;;;;;;5043583;28;20205;-70
2024/03/23 00:16:24;;;;;;;48.30;8.13;;;7.50;99.90;;;;;;5043480;28;20223;-71
2024/03/23 00:18:51;;;;;;;44.40;8.48;;;7.50;99.90;;;;;;5043906;28;20187;-72
2024/03/23 00:21:18;;;;;;;34.85;7.88;;;7.50;99.90;;;;;;5043945;28;20210;-69
2024/03/23 00:23:44;;;;;;;33.90;7.47;;;7.50;99.90;;;;;;5042108;28;20195;-72
2024/03/23 00:26:11;;;;;;;33.38;7.22;;;7.50;99.90;;;;;;5043740;28;20195;-69
2024/03/23 00:28:38;;;;;;;46.25;8.52;;;7.40;99.90;;;;;;5043300;28;20187;-69
2024/03/23 00:31:04;;;;;;;49.17;8.48;;;7.40;99.90;;;;;;5043397;28;20713;-68
2024/03/23 00:33:31;;;;;;;38.88;8.65;;;7.40;99.90;;;;;;5043395;28;20204;-68
2024/03/23 00:35:57;;;;;;;46.03;8.13;;;7.30;99.90;;;;;;5043806;28;20217;-71
2024/03/23 00:38:24;;;;;;;45.85;8.60;;;7.30;99.90;;;;;;5043251;28;20198;-69
2024/03/23 00:40:52;;;;;;;40.45;7.88;;;7.30;99.90;;;;;;5041930;28;20231;-68
2024/03/23 00:43:19;;;;;;;39.60;8.57;;;7.30;99.90;;;;;;5043554;28;20199;-69
2024/03/23 00:45:47;;;;;;;40.97;7.95;;;7.20;99.90;;;;;;5042435;28;20191;-69
2024/03/23 00:48:14;;;;;;;50.38;8.38;;;7.20;99.90;;;;;;5043070;28;20183;-69
2024/03/23 00:50:41;;;;;;;42.20;7.50;;;7.10;99.90;;;;;;5043261;28;21391;-69
2024/03/23 00:53:08;;;;;;;45.53;8.35;;;7.10;99.90;;;;;;5058577;28;20261;-70
2024/03/23 00:55:34;;;;;;;43.72;7.97;;;7.10;99.90;;;;;;5043664;28;20184;-69
2024/03/23 00:57:59;;;;;;;44.40;8.75;;;7.00;99.90;;;;;;5042382;28;20191;-69
2024/03/23 01:00:25;;;;;;;42.13;9.05;;;7.00;99.90;;;;;;5043166;28;21158;-70
2024/03/23 01:02:51;;;;;;;42.95;8.63;;;6.90;99.90;;;;;;5043563;28;20528;-71
2024/03/23 01:05:16;;;;;;;43.33;9.15;;;6.90;99.90;;;;;;5042874;28;20186;-69
2024/03/23 01:07:42;;;;;;;44.35;8.75;;;6.90;99.90;;;;;;5042931;28;20202;-70
2024/03/23 01:10:08;;;;;;;43.40;9.68;;;6.90;99.90;;;;;;5041568;28;20265;-69
2024/03/23 01:12:34;;;;;;;37.08;8.45;;;6.80;99.90;;;;;;5043369;28;20191;-71
2024/03/23 01:14:59;;;;;;;39.08;8.35;;;6.80;99.90;;;;;;5040996;28;20548;-70
2024/03/23 01:17:25;;;;;;;42.10;7.72;;;6.80;99.90;;;;;;5042443;28;20191;-69
2024/03/23 01:19:51;;;;;;;52.03;8.25;;;6.70;99.90;;;;;;5042297;28;20191;-71
2024/03/23 01:22:16;;;;;;;52.15;8.75;;;6.70;99.90;;;;;;5043074;28;20249;-71
2024/03/23 01:24:42;;;;;;;49.60;9.35;;;6.70;99.90;;;;;;5041865;28;20280;-69
2024/03/23 01:27:09;;;;;;;42.28;8.57;;;6.60;99.90;;;;;;5025054;28;20202;-70
2024/03/23 01:29:34;;;;;;;40.47;9.05;;;6.60;99.90;;;;;;5041287;28;20198;-69
2024/03/23 01:32:00;;;;;;;45.70;8.48;;;6.60;99.90;;;;;;5042422;28;20199;-69
2024/03/23 01:34:26;;;;;;;38.63;7.50;;;6.70;99.90;;;;;;5042770;28;20191;-68
2024/03/23 01:36:52;;;;;;;41.72;8.65;;;6.60;99.90;;;;;;5041928;28;20184;-70
2024/03/23 01:39:18;;;;;;;46.92;7.65;;;6.60;99.90;;;;;;5042365;28;20199;-69
2024/03/23 01:41:43;;;;;;;39.83;7.97;;;6.50;99.90;;;;;;5042172;28;20218;-68
2024/03/23 01:44:10;;;;;;;45.67;8.40;;;6.50;99.90;;;;;;5057760;28;20320;-68
2024/03/23 01:46:37;;;;;;;42.88;9.10;;;6.50;99.90;;;;;;5040509;28;20667;-68
2024/03/23 01:49:04;;;;;;;38.78;7.97;;;6.50;99.90;;;;;;5041964;28;20198;-70
2024/03/23 01:51:30;;;;;;;40.03;9.75;;;6.50;99.90;;;;;;5041914;28;20298;-69
2024/03/23 01:53:57;;;;;;;44.72;8.88;;;6.40;99.90;;;;;;5042367;28;20676;-68
2024/03/23 01:56:23;;;;;;;56.83;9.68;;;6.40;99.90;;;;;;5057540;28;20549;-71
2024/03/23 01:58:48;;;;;;;48.38;9.05;;;6.40;99.90;;;;;;5023801;28;20187;-69
2024/03/23 02:01:14;;;;;;;36.90;9.30;;;6.40;99.90;;;;;;5040722;28;20230;-69
2024/03/23 02:03:40;;;;;;;38.67;8.95;;;6.30;99.90;;;;;;5042084;28;20714;-69
2024/03/23 02:06:07;;;;;;;43.45;9.13;;;6.30;99.90;;;;;;5040719;28;20569;-69
2024/03/23 02:08:34;;;;;;;39.85;8.15;;;6.30;99.90;;;;;;5056842;28;20202;-69
2024/03/23 02:10:59;;;;;;;38.80;10.32;;;6.30;99.90;;;;;;5040405;28;20205;-70
2024/03/23 02:13:25;;;;;;;38.47;9.82;;;6.30;99.90;;;;;;5041696;28;20278;-70
2024/03/23 02:15:51;;;;;;;49.15;10.75;;;6.30;99.90;;;;;;5040319;28;20604;-71
2024/03/23 02:18:16;;;;;;;41.10;10.07;;;6.20;99.90;;;;;;5041324;28;20199;-69
2024/03/23 02:20:42;;;;;;;46.00;8.50;;;6.20;99.90;;;;;;5041900;28;20578;-69
2024/03/23 02:23:15;;;;;;;41.35;9.80;;;6.20;99.90;;;;;;5039960;28;20179;-69
2024/03/23 02:25:41;;;;;;;39.83;9.20;;;6.20;99.90;;;;;;5041526;28;20206;-69
2024/03/23 02:28:07;;;;;;;36.13;8.70;;;6.20;99.90;;;;;;5041436;28;20195;-70
2024/03/23 02:30:33;;;;;;;41.50;8.57;;;6.20;99.90;;;;;;5041047;28;20190;-71
2024/03/23 02:32:58;;;;;;;30.70;7.82;;;6.20;99.90;;;;;;5041324;28;20217;-71
2024/03/23 02:35:24;;;;;;;37.00;8.18;;;6.20;99.90;;;;;;5041818;28;20187;-72
2024/03/23 02:37:50;;;;;;;35.97;7.60;;;6.20;99.90;;;;;;5041805;28;20199;-71
2024/03/23 02:40:16;;;;;;;33.50;7.40;;;6.20;99.90;;;;;;5041028;28;20211;-68
2024/03/23 02:42:42;;;;;;;36.65;9.15;;;6.20;99.90;;;;;;5056683;28;20191;-69
2024/03/23 02:45:08;;;;;;;38.75;7.55;;;6.20;99.90;;;;;;5041941;28;20187;-70
2024/03/23 02:47:33;;;;;;;38.60;8.25;;;6.10;99.90;;;;;;5041450;28;20194;-69
2024/03/23 02:49:59;;;;;;;26.52;6.75;;;6.10;99.90;;;;;;5026900;28;20191;-68
2024/03/23 02:52:25;;;;;;;45.63;7.13;;;6.10;99.90;;;;;;5056565;28;20601;-70
2024/03/23 02:54:50;;;;;;;29.20;6.65;;;6.10;99.90;;;;;;5041195;28;20202;-70
2024/03/23 02:57:16;;;;;;;44.05;7.32;;;6.10;99.90;;;;;;5040099;28;20655;-71
2024/03/23 02:59:42;;;;;;;28.98;6.95;;;6.10;99.90;;;;;;5041059;28;20195;-71
2024/03/23 03:02:07;;;;;;;26.77;6.60;;;6.10;99.90;;;;;;5040185;28;20667;-69
2024/03/23 03:04:33;;;;;;;27.65;6.90;;;6.10;99.90;;;;;;5040960;28;20187;-68
2024/03/23 03:06:59;;;;;;;38.30;7.60;;;6.10;99.90;;;;;;5040024;28;20222;-68
2024/03/23 03:09:25;;;;;;;33.10;6.97;;;6.10;99.90;;;;;;5041333;28;20257;-68
2024/03/23 03:11:51;;;;;;;44.75;7.80;;;6.10;99.90;;;;;;5040894;28;20223;-69
2024/03/23 03:14:17;;;;;;;34.95;6.65;;;6.00;99.90;;;;;;5039426;28;20667;-69
2024/03/23 03:16:43;;;;;;;37.72;6.72;;;6.00;99.90;;;;;;5040751;28;20191;-69
2024/03/23 03:19:10;;;;;;;30.70;6.70;;;6.00;99.90;;;;;;5040873;28;20203;-70
2024/03/23 03:21:36;;;;;;;28.73;6.38;;;6.00;99.90;;;;;;5040110;28;20214;-68
2024/03/23 03:24:02;;;;;;;31.48;6.75;;;6.00;99.90;;;;;;5041103;28;20180;-69
2024/03/23 03:26:28;;;;;;;37.22;5.88;;;6.00;99.90;;;;;;5040820;28;20222;-70
2024/03/23 03:28:54;;;;;;;28.55;6.43;;;5.90;99.90;;;;;;5040960;28;20198;-68
2024/03/23 03:31:20;;;;;;;29.27;6.50;;;5.90;99.90;;;;;;5040483;28;20659;-67
2024/03/23 03:33:46;;;;;;;27.92;6.28;;;5.90;99.90;;;;;;5040251;28;20191;-70
2024/03/23 03:36:12;;;;;;;39.00;7.15;;;5.90;99.90;;;;;;5039371;28;20202;-68
2024/03/23 03:38:40;;;;;;;38.60;8.02;;;5.90;99.90;;;;;;5041014;28;20770;-68
2024/03/23 03:41:06;;;;;;;33.50;7.03;;;5.90;99.90;;;;;;5041264;28;20223;-68
2024/03/23 03:43:32;;;;;;;37.75;6.90;;;5.90;99.90;;;;;;5044386;28;20195;-69
2024/03/23 03:45:59;;;;;;;29.63;6.60;;;5.80;99.90;;;;;;5059787;28;20191;-66
2024/03/23 03:48:25;;;;;;;36.70;7.57;;;5.90;99.90;;;;;;5043817;28;20224;-68
2024/03/23 03:50:52;;;;;;;31.33;6.22;;;5.80;99.90;;;;;;5044413;28;20653;-71
2024/03/23 03:53:18;;;;;;;35.13;7.10;;;5.80;99.90;;;;;;5043033;28;20723;-70
2024/03/23 03:55:44;;;;;;;30.88;6.57;;;5.80;99.90;;;;;;5044468;28;20246;-70
2024/03/23 03:58:10;;;;;;;29.83;6.30;;;5.80;99.90;;;;;;5044455;28;20234;-69
2024/03/23 04:00:36;;;;;;;33.75;6.88;;;5.80;99.90;;;;;;5044035;28;20206;-70
2024/03/23 04:03:02;;;;;;;34.83;6.57;;;5.80;99.90;;;;;;5044557;28;20198;-69
2024/03/23 04:05:28;;;;;;;27.98;6.55;;;5.80;99.90;;;;;;5043772;28;20232;-68
2024/03/23 04:07:54;;;;;;;29.58;6.45;;;5.80;99.90;;;;;;5044582;28;20939;-71
2024/03/23 04:10:20;;;;;;;22.50;5.75;;;5.80;99.90;;;;;;5043986;28;20229;-71
2024/03/23 04:12:47;;;;;;;27.58;5.47;;;5.70;99.90;;;;;;5043584;28;20674;-70
2024/03/23 04:15:13;;;;;;;29.83;6.03;;;5.70;99.90;;;;;;5043748;28;20234;-70
2024/03/23 04:17:39;;;;;;;26.13;5.57;;;5.70;99.90;;;;;;5042858;28;20195;-71
2024/03/23 04:20:10;;;;;;;30.10;6.53;;;5.70;99.90;;;;;;5044069;28;20286;-71
2024/03/23 04:22:37;;;;;;;32.33;5.63;;;5.70;99.90;;;;;;5043660;28;20256;-73
2024/03/23 04:25:06;;;;;;;21.75;4.75;;;5.70;99.90;;;;;;5043619;28;20209;-73
2024/03/23 04:27:35;;;;;;;29.67;5.70;;;5.70;99.90;;;;;;5042074;28;20215;-70
2024/03/23 04:30:03;;;;;;;38.22;5.30;;;5.70;99.90;;;;;;5043437;28;20195;-71
2024/03/23 04:32:28;;;;;;;27.85;5.80;;;5.60;99.90;;;;;;5042613;28;20268;-70
2024/03/23 04:34:54;;;;;;;26.58;5.18;;;5.60;99.90;;;;;;5058697;28;20195;-74
2024/03/23 04:37:23;;;;;;;29.90;5.32;;;5.70;99.90;;;;;;5041893;28;20719;-74
2024/03/23 04:39:49;;;;;;;32.65;5.93;;;5.60;99.90;;;;;;5058766;28;20187;-72
2024/03/23 04:42:16;;;;;;;25.05;5.55;;;5.60;99.90;;;;;;5044266;28;20705;-70
2024/03/23 04:44:42;;;;;;;25.92;4.68;;;5.60;99.90;;;;;;5043508;28;20260;-72
2024/03/23 04:47:07;;;;;;;27.88;4.97;;;5.60;99.90;;;;;;5042973;28;20199;-71
2024/03/23 04:49:34;;;;;;;29.73;5.60;;;5.60;99.90;;;;;;5058644;28;20205;-71
2024/03/23 04:52:00;;;;;;;35.70;4.90;;;5.60;99.90;;;;;;5042151;28;20184;-73
2024/03/23 04:54:25;;;;;;;23.88;4.80;;;5.60;99.90;;;;;;5058424;28;20206;-72
2024/03/23 04:56:51;;;;;;;22.83;5.28;;;5.60;99.90;;;;;;5043085;28;20295;-73
2024/03/23 04:59:17;;;;;;;29.38;5.47;;;5.60;99.90;;;;;;5042767;28;20227;-70
2024/03/23 05:01:42;;;;;;;32.75;5.07;;;5.60;99.90;;;;;;5041363;28;20757;-73
2024/03/23 05:04:09;;;;;;;25.88;5.00;;;5.60;99.90;;;;;;5043627;28;20243;-72
2024/03/23 05:06:35;;;;;;;26.90;4.85;;;5.60;99.90;;;;;;5042888;28;20249;-72
2024/03/23 05:09:06;;;;;;;30.67;4.75;;;5.60;99.90;;;;;;5043030;28;20580;-71
2024/03/23 05:11:35;;;;;;;37.28;4.90;;;5.50;99.90;;;;;;5043020;28;20203;-71
2024/03/23 05:14:02;;;;;;;21.33;4.47;;;5.60;99.90;;;;;;5042505;28;20223;-72
2024/03/23 05:16:28;;;;;;;23.50;4.75;;;5.60;99.90;;;;;;5042242;28;20231;-73
2024/03/23 05:18:54;;;;;;;22.70;4.38;;;5.60;99.90;;;;;;5042015;28;20206;-72
2024/03/23 05:21:20;;;;;;;25.67;4.80;;;5.60;99.90;;;;;;5042564;28;20292;-72
2024/03/23 05:23:45;;;;;;;27.52;4.50;;;5.60;99.90;;;;;;5042398;28;20290;-70
2024/03/23 05:26:11;;;;;;;23.52;4.25;;;5.60;99.90;;;;;;5042209;28;20201;-71
2024/03/23 05:28:37;;;;;;;26.70;4.32;;;5.60;99.90;;;;;;5040664;28;20651;-71
2024/03/23 05:31:03;;;;;;;24.90;4.28;;;5.60;99.90;;;;;;5041757;28;20199;-72
2024/03/23 05:33:29;;;;;;;22.73;4.20;;;5.70;99.90;;;;;;5056849;28;20199;-73
2024/03/23 05:36:01;;;;;;;26.92;4.40;;;5.70;99.90;;;;;;5040288;28;20190;-72
2024/03/23 05:38:28;;;;;;;23.33;4.35;;;5.60;99.90;;;;;;5041142;28;20187;-71
2024/03/23 05:40:58;;;;;;;23.63;4.22;;;5.70;99.90;;;;;;5056322;28;20207;-70
2024/03/23 05:43:24;;;;;;;23.33;4.30;;;5.70;99.90;;;;;;5041694;28;20194;-72
2024/03/23 05:46:00;;;;;;;29.10;4.18;;;5.70;99.90;;;;;;5041666;28;20550;-72
2024/03/23 05:48:26;;;;;;;21.88;4.07;;;5.60;99.90;;;;;;5041381;28;20266;-70
2024/03/23 05:50:52;;;;;;;19.88;3.97;;;5.70;99.90;;;;;;5056285;28;20175;-70
2024/03/23 05:53:22;;;;;;;20.55;4.15;;;5.60;99.90;;;;;;5041440;28;20183;-72
2024/03/23 05:55:48;;;;;;;20.85;3.85;;;5.70;99.90;;;;;;5041356;28;20198;-71
2024/03/23 05:58:18;;;;;;;21.10;3.88;;;5.70;99.90;;;;;;5041052;28;20198;-71
2024/03/23 06:00:44;;;;;;;24.70;3.80;;;5.70;99.90;;;;;;5039239;28;20207;-70
2024/03/23 06:03:10;;;;;;;29.88;4.28;;;5.80;99.90;;;;;;5039911;28;20219;-70
2024/03/23 06:05:39;;;;;;;19.10;3.67;;;5.90;99.90;;;;;;5041775;28;20191;-71
2024/03/23 06:08:06;;;;;;;22.65;4.10;;;6.00;99.90;;;;;;5041333;28;20634;-73
2024/03/23 06:10:32;;;;;;;22.30;3.95;;;6.10;99.90;;;;;;5041398;28;20241;-73
2024/03/23 06:12:59;;;;;;;18.45;3.58;;;6.20;99.90;;;;;;5040867;28;20191;-69
2024/03/23 06:15:25;;;;;;;18.92;3.58;;;6.30;99.90;;;;;;5056635;28;20292;-70
2024/03/23 06:17:51;;;;;;;17.75;3.55;;;6.40;99.90;;;;;;5042060;28;20558;-71
2024/03/23 06:20:17;;;;;;;23.08;3.20;;;6.40;99.90;;;;;;5041164;28;20214;-71
2024/03/23 06:22:43;;;;;;;17.33;3.45;;;6.50;99.90;;;;;;5041248;28;20194;-72
2024/03/23 06:25:09;;;;;;;11.77;3.30;;;6.50;99.90;;;;;;5039743;28;20183;-72
2024/03/23 06:27:34;;;;;;;14.68;2.78;;;6.50;99.90;;;;;;5041073;28;20199;-73
2024/03/23 06:30:00;;;;;;;15.25;2.95;;;6.50;99.90;;;;;;5041958;28;20195;-75
2024/03/23 06:32:27;;;;;;;20.88;2.85;;;6.50;99.90;;;;;;5041356;28;20184;-72
2024/03/23 06:34:53;;;;;;;17.60;2.95;;;6.60;99.90;;;;;;5040208;28;20187;-71
2024/03/23 06:37:18;;;;;;;15.93;2.70;;;6.60;99.90;;;;;;5055061;28;20198;-72
2024/03/23 06:39:46;;;;;;;11.00;2.20;;;6.70;99.90;;;;;;5041486;28;20191;-70
2024/03/23 06:42:12;;;;;;;20.52;2.92;;;6.70;99.90;;;;;;5040686;28;20219;-71
2024/03/23 06:44:39;;;;;;;14.55;2.72;;;6.80;99.90;;;;;;5041487;28;20658;-71
2024/03/23 06:47:05;;;;;;;22.55;3.10;;;6.80;99.90;;;;;;5040083;28;20310;-70
2024/03/23 06:49:30;;;;;;;11.60;2.35;;;6.80;99.90;;;;;;5020470;28;20270;-69
2024/03/23 06:51:56;;;;;;;14.20;2.75;;;6.90;99.90;;;;;;5039329;28;20622;-72
2024/03/23 06:54:22;;;;;;;15.30;3.08;;;7.00;99.90;;;;;;5040832;28;20187;-70
2024/03/23 06:56:47;;;;;;;18.25;3.15;;;7.00;99.90;;;;;;5041484;28;20191;-72
2024/03/23 06:59:13;;;;;;;13.15;2.45;;;7.10;99.90;;;;;;5041763;28;21002;-73
2024/03/23 07:01:39;;;;;;;15.10;3.17;;;7.30;99.90;;;;;;5039243;28;20211;-71
2024/03/23 07:04:05;;;;;;;14.18;2.90;;;7.40;99.90;;;;;;5041003;28;20187;-69
2024/03/23 07:06:31;;;;;;;11.68;2.50;;;7.50;99.90;;;;;;5038877;28;20361;-70
2024/03/23 07:08:57;;;;;;;17.17;2.90;;;7.50;99.90;;;;;;5040762;28;20949;-70
2024/03/23 07:11:23;;;;;;;14.98;2.70;;;7.50;99.90;;;;;;5041085;28;20187;-70
2024/03/23 07:13:55;;;;;;;19.42;3.30;;;7.40;99.90;;;;;;5056680;28;20191;-71
2024/03/23 07:16:21;;;;;;;10.85;2.55;;;7.50;99.90;;;;;;5041927;28;20245;-70
2024/03/23 07:18:47;;;;;;;15.05;2.80;;;7.50;99.90;;;;;;5044695;28;20190;-73
2024/03/23 07:21:13;;;;;;;13.77;3.00;;;7.60;99.90;;;;;;5043868;28;20532;-71
2024/03/23 07:23:44;;;;;;;13.20;2.75;;;7.70;99.90;;;;;;5060206;28;20191;-73
2024/03/23 07:26:10;;;;;;;11.35;2.83;;;7.80;99.90;;;;;;5044516;28;20671;-71
2024/03/23 07:28:36;;;;;;;10.95;3.00;;;7.70;99.90;;;;;;5044631;28;20179;-70
2024/03/23 07:31:05;;;;;;;9.68;2.85;;;7.70;99.90;;;;;;5043776;28;20612;-68
2024/03/23 07:33:32;;;;;;;11.40;2.55;;;7.60;99.90;;;;;;5044198;28;20195;-69
2024/03/23 07:35:59;;;;;;;8.05;2.42;;;7.50;99.90;;;;;;5044359;28;20195;-71
2024/03/23 07:38:27;;;;;;;11.00;2.63;;;7.50;99.90;;;;;;5044555;28;20191;-72
2024/03/23 07:40:56;;;;;;;9.20;2.67;;;7.40;99.90;;;;;;5044774;28;20246;-69
2024/03/23 07:43:22;;;;;;;11.52;2.67;;;7.40;99.90;;;;;;5044889;28;20187;-69
2024/03/23 07:45:54;;;;;;;9.00;2.25;;;7.40;99.90;;;;;;5044627;28;20196;-69
2024/03/23 07:48:24;;;;;;;8.25;3.05;;;7.40;99.90;;;;;;5044822;28;20325;-71
2024/03/23 07:50:59;;;;;;;17.90;2.45;;;7.40;99.90;;;;;;5044791;28;20226;-72
2024/03/23 07:53:25;;;;;;;11.75;2.50;;;7.50;99.90;;;;;;5059630;28;20199;-71
2024/03/23 07:55:56;;;;;;;9.27;2.28;;;7.50;99.90;;;;;;5043081;28;20210;-69
2024/03/23 07:58:22;;;;;;;9.10;2.00;;;7.60;99.90;;;;;;5044362;28;20191;-73
2024/03/23 08:00:47;;;;;;;10.52;2.33;;;7.70;99.90;;;;;;5042146;28;20628;-70
2024/03/23 08:03:13;;;;;;;9.02;1.95;;;7.80;99.90;;;;;;5044130;28;20342;-70
2024/03/23 08:05:39;;;;;;;6.63;2.13;;;7.90;99.90;;;;;;5044278;28;20235;-70
2024/03/23 08:08:05;;;;;;;7.15;2.17;;;8.10;99.90;;;;;;5043440;28;20249;-69
2024/03/23 08:10:30;;;;;;;9.32;2.38;;;8.30;99.90;;;;;;5043905;28;20286;-68
2024/03/23 08:12:56;;;;;;;8.43;2.20;;;8.50;99.90;;;;;;5044661;28;20240;-71
2024/03/23 08:15:21;;;;;;;8.18;1.88;;;8.60;99.90;;;;;;5043433;28;20338;-76
2024/03/23 08:17:47;;;;;;;8.77;2.30;;;8.50;99.90;;;;;;5041645;28;21085;-69
2024/03/23 08:20:13;;;;;;;10.43;3.35;;;8.30;99.90;;;;;;5041281;28;20215;-71
2024/03/23 08:22:39;;;;;;;9.15;2.25;;;8.00;99.90;;;;;;5056860;28;20214;-70
2024/03/23 08:25:05;;;;;;;10.82;2.47;;;7.60;99.90;;;;;;5042526;28;20195;-70
2024/03/23 08:27:31;;;;;;;7.45;2.15;;;7.50;99.90;;;;;;5039631;28;20635;-67
2024/03/23 08:29:56;;;;;;;9.27;2.17;;;7.40;99.90;;;;;;5042366;28;20266;-68
2024/03/23 08:32:22;;;;;;;7.55;2.10;;;7.40;99.90;;;;;;5040743;28;20215;-69
2024/03/23 08:34:48;;;;;;;9.95;2.40;;;7.30;99.90;;;;;;5042018;28;20837;-71
2024/03/23 08:37:14;;;;;;;9.57;2.45;;;7.30;99.90;;;;;;5057381;28;20194;-72
2024/03/23 08:39:39;;;;;;;13.82;2.65;;;7.40;99.90;;;;;;5042234;28;20191;-69
2024/03/23 08:42:05;;;;;;;11.98;2.80;;;7.40;99.90;;;;;;5042368;28;20207;-71
2024/03/23 08:44:31;;;;;;;9.25;2.60;;;7.50;99.90;;;;;;5040881;28;20194;-69
2024/03/23 08:46:57;;;;;;;12.18;3.03;;;7.70;99.90;;;;;;5041752;28;20195;-70
2024/03/23 08:49:22;;;;;;;7.80;2.67;;;7.80;99.90;;;;;;5041658;28;20195;-69
2024/03/23 08:51:48;;;;;;;9.27;3.13;;;7.90;99.90;;;;;;5042014;28;20199;-72
2024/03/23 08:54:14;;;;;;;14.52;3.55;;;7.90;99.90;;;;;;5042453;28;20191;-70
2024/03/23 08:56:39;;;;;;;13.27;3.15;;;8.00;99.90;;;;;;5041298;28;20580;-72
2024/03/23 08:59:05;;;;;;;16.42;3.30;;;8.10;99.90;;;;;;5057973;28;20214;-70
2024/03/23 09:01:31;;;;;;;16.05;3.38;;;8.20;99.90;;;;;;5042166;28;20328;-71
2024/03/23 09:03:56;;;;;;;12.80;2.92;;;8.30;99.90;;;;;;5042055;28;20206;-69
2024/03/23 09:06:22;;;;;;;14.15;3.40;;;8.50;99.90;;;;;;5041621;28;20198;-68
2024/03/23 09:08:48;;;;;;;14.30;3.80;;;8.60;99.90;;;;;;5040244;28;20199;-67
2024/03/23 09:11:13;;;;;;;16.60;3.97;;;8.80;99.90;;;;;;5042030;28;20203;-70
2024/03/23 09:13:39;;;;;;;14.35;3.13;;;9.00;99.90;;;;;;5041715;28;20202;-70
2024/03/23 09:16:06;;;;;;;11.07;2.97;;;9.20;99.90;;;;;;5004460;28;1082505;-73
2024/03/23 09:18:33;;;;;;;14.07;2.95;;;9.50;99.90;;;;;;5041464;28;20202;-71
2024/03/23 09:20:59;;;;;;;14.05;2.88;;;9.70;99.90;;;;;;5042878;28;20318;-70
2024/03/23 09:23:25;;;;;;;12.93;2.60;;;9.90;99.90;;;;;;5043099;28;20573;-71
2024/03/23 09:25:50;;;;;;;8.35;2.28;;;10.10;99.90;;;;;;5042581;28;20227;-75
2024/03/23 09:28:16;;;;;;;10.23;2.70;;;10.20;99.90;;;;;;5042445;28;20188;-69
2024/03/23 09:30:42;;;;;;;14.75;2.50;;;10.30;99.90;;;;;;5042852;28;20233;-68
2024/03/23 09:33:12;;;;;;;8.85;2.08;;;10.30;99.90;;;;;;5042482;28;20191;-71
2024/03/23 09:35:44;;;;;;;7.93;2.13;;;10.30;99.90;;;;;;5042007;28;20202;-71
2024/03/23 09:38:10;;;;;;;10.35;2.70;;;10.00;99.90;;;;;;5042268;28;20213;-72
2024/03/23 09:40:43;;;;;;;12.70;2.85;;;9.40;99.90;;;;;;5041610;28;20734;-69
2024/03/23 09:43:09;;;;;;;10.50;2.42;;;8.60;99.90;;;;;;5042403;28;20187;-68
2024/03/23 09:45:45;;;;;;;9.20;2.28;;;8.20;99.90;;;;;;5042324;28;20213;-71
2024/03/23 09:48:11;;;;;;;7.38;1.92;;;7.80;99.90;;;;;;5043351;28;20204;-68
2024/03/23 09:50:41;;;;;;;10.63;4.05;;;7.40;99.90;;;;;;5041248;28;20191;-70
2024/03/23 09:53:09;;;;;;;7.97;1.98;;;7.20;99.90;;;;;;5041948;28;20196;-70
2024/03/23 09:55:35;;;;;;;8.30;2.40;;;7.10;99.90;;;;;;5041649;28;20198;-71
2024/03/23 09:58:02;;;;;;;6.18;1.92;;;7.00;99.90;;;;;;5042077;28;20195;-68
2024/03/23 10:00:27;;;;;;;7.40;2.35;;;7.00;99.90;;;;;;5040561;28;20238;-71
2024/03/23 10:03:01;;;;;;;6.68;1.75;;;7.10;99.90;;;;;;5041842;28;20655;-68
2024/03/23 10:05:27;;;;;;;6.80;1.70;;;7.20;99.90;;;;;;5040792;28;20523;-71
2024/03/23 10:07:53;;;;;;;6.03;1.70;;;7.30;99.90;;;;;;5041318;28;20651;-71
2024/03/23 10:10:21;;;;;;;5.13;1.50;;;7.40;99.90;;;;;;5042041;28;20187;-72
2024/03/23 10:12:53;;;;;;;7.32;1.98;;;7.50;99.90;;;;;;5056700;28;20628;-69
2024/03/23 10:15:21;;;;;;;5.85;1.73;;;7.60;99.90;;;;;;5038716;28;20592;-73
2024/03/23 10:17:47;;;;;;;4.15;1.40;;;7.60;99.90;;;;;;5040771;28;20191;-70
2024/03/23 10:20:19;;;;;;;10.82;1.95;;;7.80;99.90;;;;;;5041464;28;20252;-69
2024/03/23 10:22:46;;;;;;;13.18;2.17;;;7.90;99.90;;;;;;5041844;28;20195;-70
2024/03/23 10:25:13;;;;;;;10.98;2.78;;;8.00;99.90;;;;;;5041757;28;20194;-70
2024/03/23 10:27:39;;;;;;;10.63;2.60;;;8.20;99.90;;;;;;5041452;28;20179;-72
2024/03/23 10:30:10;;;;;;;14.10;2.90;;;8.30;99.90;;;;;;5041177;28;20180;-72
2024/03/23 10:32:36;;;;;;;12.82;2.97;;;8.40;99.90;;;;;;5039750;28;20252;-69
2024/03/23 10:35:16;;;;;;;14.82;2.45;;;8.60;99.90;;;;;;5039348;28;20661;-68
2024/03/23 10:37:49;;;;;;;16.52;2.97;;;8.80;99.90;;;;;;5039890;28;20971;-68
2024/03/23 10:40:15;;;;;;;17.75;3.05;;;8.90;99.90;;;;;;5041273;28;20195;-70
2024/03/23 10:42:41;;;;;;;13.65;3.00;;;9.10;99.90;;;;;;5038957;28;20195;-71
2024/03/23 10:45:07;;;;;;;11.35;3.03;;;9.10;99.90;;;;;;5041401;28;20332;-69
2024/03/23 10:47:37;;;;;;;15.65;3.28;;;9.10;99.90;;;;;;5040682;28;20308;-71
2024/03/23 10:50:06;;;;;;;12.70;3.13;;;9.20;99.90;;;;;;5041168;28;20187;-71
2024/03/23 10:52:35;;;;;;;9.70;2.53;;;9.30;99.90;;;;;;5041161;28;20192;-71
2024/03/23 10:55:06;;;;;;;13.18;2.60;;;9.40;99.90;;;;;;5040641;28;20195;-68
2024/03/23 10:57:44;;;;;;;13.25;2.20;;;9.50;99.90;;;;;;5041243;28;20579;-71
2024/03/23 11:00:11;;;;;;;12.43;2.50;;;9.60;99.90;;;;;;5040514;28;20207;-69
2024/03/23 11:02:37;;;;;;;9.88;2.40;;;9.80;99.90;;;;;;5041040;28;20214;-68
2024/03/23 11:05:25;;;;;;;9.55;2.25;;;10.00;99.90;;;;;;5041020;28;20215;-69
2024/03/23 11:07:51;;;;;;;14.55;2.35;;;10.00;99.90;;;;;;5040711;28;20187;-69
2024/03/23 11:10:29;;;;;;;11.90;2.38;;;9.90;99.90;;;;;;5056155;28;20730;-72
2024/03/23 11:12:55;;;;;;;11.80;2.50;;;9.50;99.90;;;;;;5056524;28;20272;-71
2024/03/23 11:15:21;;;;;;;11.30;2.50;;;9.20;99.90;;;;;;5041153;28;20249;-72
2024/03/23 11:18:08;;;;;;;15.77;2.50;;;9.00;99.90;;;;;;5040913;28;20203;-71
2024/03/23 11:20:38;;;;;;;15.90;2.47;;;8.80;99.90;;;;;;5041230;28;20682;-68
2024/03/23 11:23:04;;;;;;;9.07;2.15;;;8.70;99.90;;;;;;5041076;28;20552;-69
2024/03/23 11:25:30;;;;;;;9.25;2.25;;;8.60;99.90;;;;;;5040319;28;20757;-71
2024/03/23 11:27:58;;;;;;;6.75;2.00;;;8.60;99.90;;;;;;5040377;28;20188;-69
2024/03/23 11:30:30;;;;;;;12.35;2.60;;;8.50;99.90;;;;;;5040853;28;20187;-69
2024/03/23 11:33:00;;;;;;;13.57;2.85;;;8.60;99.90;;;;;;5040679;28;20661;-70
2024/03/23 11:35:33;;;;;;;13.38;3.33;;;8.80;99.90;;;;;;5040029;28;20204;-69
2024/03/23 11:38:02;;;;;;;9.60;2.47;;;9.00;99.90;;;;;;5039828;28;20559;-69
2024/03/23 11:40:29;;;;;;;9.90;2.60;;;9.30;99.90;;;;;;5040022;28;20207;-70
2024/03/23 11:43:24;;;;;;;14.55;2.88;;;9.50;99.90;;;;;;5040581;28;20184;-69
2024/03/23 11:45:52;;;;;;;12.35;2.90;;;9.80;99.90;;;;;;5040033;28;20791;-71
2024/03/23 11:48:23;;;;;;;13.40;2.53;;;10.00;99.90;;;;;;5040796;28;20225;-69
2024/03/23 11:50:54;;;;;;;11.73;2.35;;;10.20;99.90;;;;;;5040412;28;20202;-68
2024/03/23 11:53:27;;;;;;;7.80;2.58;;;10.40;99.90;;;;;;5040342;28;20223;-68
2024/03/23 11:55:58;;;;;;;14.15;2.35;;;10.40;99.90;;;;;;5040353;28;20201;-69
2024/03/23 11:58:25;;;;;;;12.52;2.65;;;10.40;99.90;;;;;;5040616;28;20282;-70
2024/03/23 12:01:02;;;;;;;11.27;3.03;;;10.30;99.90;;;;;;5040541;28;20257;-70
2024/03/23 12:03:29;;;;;;;10.23;2.70;;;10.30;99.90;;;;;;5042376;28;20194;-69
2024/03/23 12:06:02;;;;;;;15.18;3.20;;;10.20;99.90;;;;;;5043328;28;20213;-68
2024/03/23 12:08:35;;;;;;;11.32;2.40;;;10.20;99.90;;;;;;5043926;28;20333;-69
2024/03/23 12:11:09;;;;;;;14.35;2.45;;;10.10;99.90;;;;;;5044038;28;20241;-68
2024/03/23 12:13:35;;;;;;;7.28;2.70;;;9.90;99.90;;;;;;5042280;28;20198;-70
2024/03/23 12:16:20;;;;;;;12.02;2.08;;;9.80;99.90;;;;;;5043940;28;20241;-68
2024/03/23 12:18:47;;;;;;;8.65;2.08;;;9.60;99.90;;;;;;5027818;28;20240;-71
2024/03/23 12:21:13;;;;;;;11.18;2.22;;;9.50;99.90;;;;;;5042159;28;20211;-71
2024/03/23 12:23:40;;;;;;;6.70;1.98;;;9.40;99.90;;;;;;5043709;28;21037;-70
2024/03/23 12:26:06;;;;;;;6.05;2.00;;;9.30;99.90;;;;;;5042026;28;20219;-69
2024/03/23 12:28:32;;;;;;;7.60;2.25;;;9.10;99.90;;;;;;5043887;28;20606;-68
2024/03/23 12:30:58;;;;;;;9.60;2.08;;;8.90;99.90;;;;;;5041631;28;21303;-69
2024/03/23 12:33:24;;;;;;;8.05;2.40;;;8.70;99.90;;;;;;5042587;28;20180;-70
2024/03/23 12:35:53;;;;;;;7.70;1.88;;;8.60;99.90;;;;;;5043386;28;20198;-66
2024/03/23 12:38:19;;;;;;;7.05;1.80;;;8.50;99.90;;;;;;5043283;28;20230;-70
2024/03/23 12:40:49;;;;;;;6.82;2.10;;;8.40;99.90;;;;;;5043390;28;20215;-68
2024/03/23 12:43:15;;;;;;;8.32;2.45;;;8.30;99.90;;;;;;5043745;28;20753;-71
2024/03/23 12:45:41;;;;;;;8.05;2.33;;;8.30;99.90;;;;;;5043288;28;20193;-71
2024/03/23 12:48:07;;;;;;;11.30;2.40;;;8.30;99.90;;;;;;5058069;28;20197;-70